sensor_id;sensor_type;location;lat;lon;timestamp;pressure;altitude;pressure_sealevel;temperature;humidity
76448;BME280;65284;51.040;13.722;2023-06-22T00:01:20;100144.00;;;22.43;72.35
76448;BME280;65284;51.040;13.722;2023-06-22T00:03:47;100138.00;;;22.53;71.87
76448;BME280;65284;51.040;13.722;2023-06-22T00:06:14;100142.00;;;22.38;72.63
76448;BME280;65284;51.040;13.722;2023-06-22T00:08:40;100144.00;;;22.66;71.55
76448;BME280;65284;51.040;13.722;2023-06-22T00:11:07;100149.63;;;22.65;71.82
76448;BME280;65284;51.040;13.722;2023-06-22T00:13:33;100146.56;;;22.73;71.22
76448;BME280;65284;51.040;13.722;2023-06-22T00:16:00;100155.97;;;22.70;71.27
76448;BME280;65284;51.040;13.722;2023-06-22T00:18:26;100157.75;;;22.53;71.94
76448;BME280;65284;51.040;13.722;2023-06-22T00:20:55;100145.50;;;22.27;72.86
76448;BME280;65284;51.040;13.722;2023-06-22T00:23:24;100159.09;;;21.97;73.75
76448;BME280;65284;51.040;13.722;2023-06-22T00:25:50;100168.41;;;22.01;73.78
76448;BME280;65284;51.040;13.722;2023-06-22T00:28:17;100175.31;;;21.97;73.84
76448;BME280;65284;51.040;13.722;2023-06-22T00:30:43;100177.31;;;21.90;73.91
76448;BME280;65284;51.040;13.722;2023-06-22T00:33:10;100182.72;;;21.90;74.19
76448;BME280;65284;51.040;13.722;2023-06-22T00:35:36;100174.00;;;21.88;73.97
76448;BME280;65284;51.040;13.722;2023-06-22T00:38:03;100169.38;;;21.76;74.08
76448;BME280;65284;51.040;13.722;2023-06-22T00:40:32;100168.66;;;21.69;74.46
76448;BME280;65284;51.040;13.722;2023-06-22T00:42:59;100165.50;;;21.72;74.19
76448;BME280;65284;51.040;13.722;2023-06-22T00:45:26;100167.50;;;21.65;74.53
76448;BME280;65284;51.040;13.722;2023-06-22T00:47:54;100169.72;;;21.68;74.22
76448;BME280;65284;51.040;13.722;2023-06-22T00:50:22;100170.31;;;21.70;74.07
76448;BME280;65284;51.040;13.722;2023-06-22T00:52:57;100166.97;;;21.56;74.96
76448;BME280;65284;51.040;13.722;2023-06-22T00:55:25;100162.00;;;21.84;73.93
76448;BME280;65284;51.040;13.722;2023-06-22T00:57:53;100166.88;;;22.05;72.94
76448;BME280;65284;51.040;13.722;2023-06-22T01:00:24;100167.88;;;21.80;73.89
76448;BME280;65284;51.040;13.722;2023-06-22T01:02:52;100168.81;;;21.74;74.21
76448;BME280;65284;51.040;13.722;2023-06-22T01:05:22;100160.34;;;21.83;74.08
76448;BME280;65284;51.040;13.722;2023-06-22T01:10:49;100171.56;;;21.98;73.28
76448;BME280;65284;51.040;13.722;2023-06-22T01:16:00;100156.13;;;21.87;73.39
76448;BME280;65284;51.040;13.722;2023-06-22T01:18:30;100160.56;;;21.69;73.95
76448;BME280;65284;51.040;13.722;2023-06-22T01:20:57;100166.13;;;21.56;74.36
76448;BME280;65284;51.040;13.722;2023-06-22T01:26:25;100156.31;;;21.73;73.88
76448;BME280;65284;51.040;13.722;2023-06-22T01:28:56;100156.53;;;21.60;74.53
76448;BME280;65284;51.040;13.722;2023-06-22T01:31:25;100165.47;;;21.61;74.62
76448;BME280;65284;51.040;13.722;2023-06-22T01:33:59;100172.84;;;21.35;75.80
76448;BME280;65284;51.040;13.722;2023-06-22T01:36:26;100166.53;;;21.23;76.57
76448;BME280;65284;51.040;13.722;2023-06-22T01:38:53;100171.75;;;21.24;76.11
76448;BME280;65284;51.040;13.722;2023-06-22T01:41:21;100164.09;;;21.21;76.05
76448;BME280;65284;51.040;13.722;2023-06-22T01:43:48;100171.84;;;21.29;75.44
76448;BME280;65284;51.040;13.722;2023-06-22T01:46:15;100163.78;;;21.11;76.65
76448;BME280;65284;51.040;13.722;2023-06-22T01:48:41;100166.41;;;20.99;76.64
76448;BME280;65284;51.040;13.722;2023-06-22T01:51:08;100168.28;;;20.99;76.82
76448;BME280;65284;51.040;13.722;2023-06-22T01:53:34;100158.28;;;21.18;76.01
76448;BME280;65284;51.040;13.722;2023-06-22T01:56:01;100162.16;;;21.10;76.27
76448;BME280;65284;51.040;13.722;2023-06-22T01:58:29;100161.75;;;20.88;76.61
76448;BME280;65284;51.040;13.722;2023-06-22T02:00:59;100161.09;;;20.93;77.04
76448;BME280;65284;51.040;13.722;2023-06-22T02:03:31;100156.44;;;20.63;77.45
76448;BME280;65284;51.040;13.722;2023-06-22T02:06:16;100164.47;;;20.88;76.98
76448;BME280;65284;51.040;13.722;2023-06-22T02:08:55;100159.38;;;20.80;76.85
76448;BME280;65284;51.040;13.722;2023-06-22T02:11:25;100158.84;;;20.71;77.31
76448;BME280;65284;51.040;13.722;2023-06-22T02:13:54;100152.69;;;21.01;76.13
76448;BME280;65284;51.040;13.722;2023-06-22T02:16:21;100150.78;;;20.64;77.14
76448;BME280;65284;51.040;13.722;2023-06-22T02:18:51;100151.19;;;20.86;77.04
76448;BME280;65284;51.040;13.722;2023-06-22T02:21:21;100141.44;;;21.04;76.29
76448;BME280;65284;51.040;13.722;2023-06-22T02:23:48;100141.53;;;20.97;76.15
76448;BME280;65284;51.040;13.722;2023-06-22T02:26:16;100149.31;;;21.05;76.14
76448;BME280;65284;51.040;13.722;2023-06-22T02:28:44;100157.25;;;21.19;75.25
76448;BME280;65284;51.040;13.722;2023-06-22T02:31:10;100152.69;;;21.01;75.90
76448;BME280;65284;51.040;13.722;2023-06-22T02:33:37;100155.84;;;20.98;75.84
76448;BME280;65284;51.040;13.722;2023-06-22T02:36:04;100159.28;;;20.68;77.00
76448;BME280;65284;51.040;13.722;2023-06-22T02:38:31;100155.09;;;20.72;77.13
76448;BME280;65284;51.040;13.722;2023-06-22T02:41:01;100156.00;;;20.84;77.08
76448;BME280;65284;51.040;13.722;2023-06-22T02:43:27;100165.28;;;20.70;76.96
76448;BME280;65284;51.040;13.722;2023-06-22T02:45:54;100171.06;;;20.49;77.81
76448;BME280;65284;51.040;13.722;2023-06-22T02:48:21;100176.88;;;20.27;78.58
76448;BME280;65284;51.040;13.722;2023-06-22T02:50:47;100180.44;;;20.21;78.74
76448;BME280;65284;51.040;13.722;2023-06-22T02:53:14;100170.25;;;20.23;78.75
76448;BME280;65284;51.040;13.722;2023-06-22T02:55:40;100176.97;;;20.39;78.38
76448;BME280;65284;51.040;13.722;2023-06-22T02:58:07;100173.78;;;20.23;78.43
76448;BME280;65284;51.040;13.722;2023-06-22T03:00:34;100169.03;;;19.94;79.36
76448;BME280;65284;51.040;13.722;2023-06-22T03:03:01;100167.91;;;20.52;77.70
76448;BME280;65284;51.040;13.722;2023-06-22T03:05:27;100165.19;;;20.33;77.87
76448;BME280;65284;51.040;13.722;2023-06-22T03:07:54;100181.84;;;20.49;77.78
76448;BME280;65284;51.040;13.722;2023-06-22T03:10:20;100176.31;;;20.18;78.53
76448;BME280;65284;51.040;13.722;2023-06-22T03:12:47;100178.88;;;20.07;79.29
76448;BME280;65284;51.040;13.722;2023-06-22T03:15:13;100179.16;;;20.49;77.88
76448;BME280;65284;51.040;13.722;2023-06-22T03:17:40;100167.31;;;20.75;76.90
76448;BME280;65284;51.040;13.722;2023-06-22T03:20:08;100163.19;;;20.90;76.24
76448;BME280;65284;51.040;13.722;2023-06-22T03:22:37;100152.53;;;20.96;75.65
76448;BME280;65284;51.040;13.722;2023-06-22T03:25:04;100145.19;;;21.03;75.57
76448;BME280;65284;51.040;13.722;2023-06-22T03:27:30;100137.47;;;20.70;76.55
76448;BME280;65284;51.040;13.722;2023-06-22T03:29:57;100125.84;;;20.69;76.50
76448;BME280;65284;51.040;13.722;2023-06-22T03:32:24;100124.28;;;20.80;75.97
76448;BME280;65284;51.040;13.722;2023-06-22T03:34:50;100143.72;;;20.88;75.85
76448;BME280;65284;51.040;13.722;2023-06-22T03:37:17;100152.75;;;20.76;76.10
76448;BME280;65284;51.040;13.722;2023-06-22T03:39:43;100152.78;;;20.51;77.32
76448;BME280;65284;51.040;13.722;2023-06-22T03:42:10;100145.81;;;20.68;76.85
76448;BME280;65284;51.040;13.722;2023-06-22T03:44:36;100140.63;;;21.03;76.01
76448;BME280;65284;51.040;13.722;2023-06-22T03:47:04;100149.09;;;21.07;75.56
76448;BME280;65284;51.040;13.722;2023-06-22T03:49:30;100147.31;;;21.01;75.95
76448;BME280;65284;51.040;13.722;2023-06-22T03:51:56;100152.72;;;20.82;76.49
76448;BME280;65284;51.040;13.722;2023-06-22T03:54:23;100152.09;;;20.99;76.02
76448;BME280;65284;51.040;13.722;2023-06-22T03:56:49;100144.16;;;21.04;75.57
76448;BME280;65284;51.040;13.722;2023-06-22T03:59:16;100142.66;;;20.71;76.75
76448;BME280;65284;51.040;13.722;2023-06-22T04:01:42;100152.84;;;20.69;76.80
76448;BME280;65284;51.040;13.722;2023-06-22T04:04:09;100157.78;;;20.90;76.42
76448;BME280;65284;51.040;13.722;2023-06-22T04:06:35;100147.31;;;20.82;76.74
76448;BME280;65284;51.040;13.722;2023-06-22T04:09:02;100153.44;;;20.89;76.68
76448;BME280;65284;51.040;13.722;2023-06-22T04:11:29;100164.31;;;21.01;76.35
76448;BME280;65284;51.040;13.722;2023-06-22T04:13:55;100162.88;;;21.17;75.82
76448;BME280;65284;51.040;13.722;2023-06-22T04:16:22;100169.41;;;21.28;75.66
76448;BME280;65284;51.040;13.722;2023-06-22T04:18:48;100172.94;;;21.10;76.10
76448;BME280;65284;51.040;13.722;2023-06-22T04:21:15;100167.53;;;21.10;75.88
76448;BME280;65284;51.040;13.722;2023-06-22T04:23:42;100158.75;;;21.14;75.90
76448;BME280;65284;51.040;13.722;2023-06-22T04:26:09;100166.31;;;21.06;76.06
76448;BME280;65284;51.040;13.722;2023-06-22T04:28:35;100170.91;;;21.05;76.02
76448;BME280;65284;51.040;13.722;2023-06-22T04:31:02;100164.09;;;21.21;75.76
76448;BME280;65284;51.040;13.722;2023-06-22T04:33:29;100165.16;;;21.39;75.04
76448;BME280;65284;51.040;13.722;2023-06-22T04:35:56;100180.00;;;21.48;74.98
76448;BME280;65284;51.040;13.722;2023-06-22T04:38:24;100174.66;;;21.04;75.74
76448;BME280;65284;51.040;13.722;2023-06-22T04:40:50;100177.44;;;21.16;75.95
76448;BME280;65284;51.040;13.722;2023-06-22T04:43:18;100184.94;;;21.14;76.08
76448;BME280;65284;51.040;13.722;2023-06-22T04:45:45;100189.00;;;21.05;75.99
76448;BME280;65284;51.040;13.722;2023-06-22T04:48:11;100193.00;;;21.39;74.36
76448;BME280;65284;51.040;13.722;2023-06-22T04:50:45;100204.59;;;21.03;75.90
76448;BME280;65284;51.040;13.722;2023-06-22T04:53:11;100202.66;;;21.10;75.28
76448;BME280;65284;51.040;13.722;2023-06-22T04:55:39;100208.66;;;21.30;74.24
76448;BME280;65284;51.040;13.722;2023-06-22T04:58:11;100217.22;;;21.27;74.06
76448;BME280;65284;51.040;13.722;2023-06-22T05:00:39;100215.94;;;21.30;73.83
76448;BME280;65284;51.040;13.722;2023-06-22T05:03:05;100222.91;;;21.19;74.24
76448;BME280;65284;51.040;13.722;2023-06-22T05:05:45;100227.13;;;21.15;74.11
76448;BME280;65284;51.040;13.722;2023-06-22T05:08:12;100225.91;;;21.11;74.13
76448;BME280;65284;51.040;13.722;2023-06-22T05:10:39;100245.50;;;21.06;74.73
76448;BME280;65284;51.040;13.722;2023-06-22T05:13:25;100249.69;;;21.21;74.03
76448;BME280;65284;51.040;13.722;2023-06-22T05:15:53;100252.25;;;21.52;73.04
76448;BME280;65284;51.040;13.722;2023-06-22T05:18:28;100255.16;;;21.14;74.20
76448;BME280;65284;51.040;13.722;2023-06-22T05:20:55;100259.22;;;21.23;73.86
76448;BME280;65284;51.040;13.722;2023-06-22T05:23:22;100256.22;;;21.13;74.70
76448;BME280;65284;51.040;13.722;2023-06-22T05:25:49;100248.13;;;21.31;74.05
76448;BME280;65284;51.040;13.722;2023-06-22T05:28:15;100255.34;;;21.38;73.69
76448;BME280;65284;51.040;13.722;2023-06-22T05:30:41;100253.53;;;21.50;73.54
76448;BME280;65284;51.040;13.722;2023-06-22T05:33:08;100260.16;;;21.54;73.47
76448;BME280;65284;51.040;13.722;2023-06-22T05:35:35;100249.81;;;21.51;73.86
76448;BME280;65284;51.040;13.722;2023-06-22T05:38:01;100234.41;;;21.81;72.84
76448;BME280;65284;51.040;13.722;2023-06-22T05:40:27;100228.19;;;21.81;73.05
76448;BME280;65284;51.040;13.722;2023-06-22T05:42:54;100220.38;;;22.03;72.26
76448;BME280;65284;51.040;13.722;2023-06-22T05:45:21;100231.69;;;22.12;71.98
76448;BME280;65284;51.040;13.722;2023-06-22T05:47:47;100233.56;;;22.11;71.70
76448;BME280;65284;51.040;13.722;2023-06-22T05:50:14;100229.81;;;22.12;71.81
76448;BME280;65284;51.040;13.722;2023-06-22T05:52:40;100231.19;;;22.21;71.54
76448;BME280;65284;51.040;13.722;2023-06-22T05:55:07;100228.56;;;22.26;71.04
76448;BME280;65284;51.040;13.722;2023-06-22T05:57:33;100234.75;;;22.45;70.16
76448;BME280;65284;51.040;13.722;2023-06-22T06:00:00;100226.38;;;22.47;70.24
76448;BME280;65284;51.040;13.722;2023-06-22T06:02:26;100225.44;;;22.53;70.38
76448;BME280;65284;51.040;13.722;2023-06-22T06:04:53;100219.94;;;22.60;70.27
76448;BME280;65284;51.040;13.722;2023-06-22T06:07:21;100223.47;;;22.84;69.50
76448;BME280;65284;51.040;13.722;2023-06-22T06:09:48;100217.09;;;22.78;69.87
76448;BME280;65284;51.040;13.722;2023-06-22T06:12:14;100210.13;;;22.70;70.33
76448;BME280;65284;51.040;13.722;2023-06-22T06:14:40;100222.25;;;22.80;70.25
76448;BME280;65284;51.040;13.722;2023-06-22T06:17:07;100215.34;;;22.84;70.15
76448;BME280;65284;51.040;13.722;2023-06-22T06:19:33;100197.66;;;22.93;69.58
76448;BME280;65284;51.040;13.722;2023-06-22T06:22:00;100197.06;;;23.03;69.87
76448;BME280;65284;51.040;13.722;2023-06-22T06:24:26;100183.44;;;23.38;68.48
76448;BME280;65284;51.040;13.722;2023-06-22T06:26:53;100168.63;;;23.29;68.67
76448;BME280;65284;51.040;13.722;2023-06-22T06:29:19;100117.34;;;23.27;68.32
76448;BME280;65284;51.040;13.722;2023-06-22T06:31:46;100082.38;;;23.26;68.43
76448;BME280;65284;51.040;13.722;2023-06-22T06:34:12;100088.13;;;23.29;68.12
76448;BME280;65284;51.040;13.722;2023-06-22T06:36:38;100109.75;;;23.41;67.92
76448;BME280;65284;51.040;13.722;2023-06-22T06:39:05;100122.00;;;23.44;67.81
76448;BME280;65284;51.040;13.722;2023-06-22T06:41:31;100129.88;;;23.45;67.61
76448;BME280;65284;51.040;13.722;2023-06-22T06:43:58;100139.72;;;23.34;67.80
76448;BME280;65284;51.040;13.722;2023-06-22T06:46:24;100137.94;;;23.40;66.92
76448;BME280;65284;51.040;13.722;2023-06-22T06:48:51;100131.84;;;23.33;67.32
76448;BME280;65284;51.040;13.722;2023-06-22T06:51:17;100099.50;;;23.43;66.94
76448;BME280;65284;51.040;13.722;2023-06-22T06:53:44;100098.03;;;23.52;66.51
76448;BME280;65284;51.040;13.722;2023-06-22T06:56:10;100111.88;;;23.68;66.55
76448;BME280;65284;51.040;13.722;2023-06-22T06:58:41;100113.16;;;23.65;66.63
76448;BME280;65284;51.040;13.722;2023-06-22T07:01:08;100115.19;;;23.70;66.16
76448;BME280;65284;51.040;13.722;2023-06-22T07:03:35;100114.53;;;23.79;66.38
76448;BME280;65284;51.040;13.722;2023-06-22T07:06:01;100112.56;;;23.92;65.30
76448;BME280;65284;51.040;13.722;2023-06-22T07:08:28;100110.94;;;23.91;65.69
76448;BME280;65284;51.040;13.722;2023-06-22T07:10:55;100125.47;;;24.01;65.44
76448;BME280;65284;51.040;13.722;2023-06-22T07:13:21;100114.88;;;24.17;65.44
76448;BME280;65284;51.040;13.722;2023-06-22T07:15:48;100123.25;;;24.15;64.92
76448;BME280;65284;51.040;13.722;2023-06-22T07:18:14;100118.16;;;24.19;64.88
76448;BME280;65284;51.040;13.722;2023-06-22T07:20:41;100123.16;;;24.27;64.41
76448;BME280;65284;51.040;13.722;2023-06-22T07:23:07;100122.94;;;24.28;64.26
76448;BME280;65284;51.040;13.722;2023-06-22T07:25:34;100128.34;;;24.45;63.60
76448;BME280;65284;51.040;13.722;2023-06-22T07:28:03;100124.72;;;24.57;63.64
76448;BME280;65284;51.040;13.722;2023-06-22T07:30:31;100127.59;;;24.67;63.74
76448;BME280;65284;51.040;13.722;2023-06-22T07:32:59;100118.44;;;24.73;63.13
76448;BME280;65284;51.040;13.722;2023-06-22T07:35:30;100123.59;;;24.74;63.06
76448;BME280;65284;51.040;13.722;2023-06-22T07:37:57;100123.16;;;24.83;62.54
76448;BME280;65284;51.040;13.722;2023-06-22T07:40:23;100124.09;;;24.93;62.13
76448;BME280;65284;51.040;13.722;2023-06-22T07:42:50;100124.53;;;25.07;61.67
76448;BME280;65284;51.040;13.722;2023-06-22T07:45:18;100117.28;;;25.13;61.59
76448;BME280;65284;51.040;13.722;2023-06-22T07:47:44;100118.59;;;25.10;61.86
76448;BME280;65284;51.040;13.722;2023-06-22T07:50:11;100120.59;;;25.15;61.57
76448;BME280;65284;51.040;13.722;2023-06-22T07:52:37;100125.53;;;25.18;61.71
76448;BME280;65284;51.040;13.722;2023-06-22T07:55:04;100129.72;;;25.31;62.63
76448;BME280;65284;51.040;13.722;2023-06-22T07:57:30;100130.84;;;25.35;61.86
76448;BME280;65284;51.040;13.722;2023-06-22T08:00:02;100121.44;;;25.42;61.04
76448;BME280;65284;51.040;13.722;2023-06-22T08:02:30;100125.22;;;25.41;61.35
76448;BME280;65284;51.040;13.722;2023-06-22T08:04:57;100115.53;;;25.51;60.71
76448;BME280;65284;51.040;13.722;2023-06-22T08:07:41;100118.16;;;25.68;60.70
76448;BME280;65284;51.040;13.722;2023-06-22T08:10:12;100117.94;;;25.74;60.50
76448;BME280;65284;51.040;13.722;2023-06-22T08:12:39;100110.97;;;25.83;60.62
76448;BME280;65284;51.040;13.722;2023-06-22T08:15:06;100109.69;;;25.96;59.78
76448;BME280;65284;51.040;13.722;2023-06-22T08:17:33;100111.19;;;26.09;59.16
76448;BME280;65284;51.040;13.722;2023-06-22T08:20:00;100107.41;;;26.15;58.22
76448;BME280;65284;51.040;13.722;2023-06-22T08:22:27;100109.56;;;26.13;57.55
76448;BME280;65284;51.040;13.722;2023-06-22T08:24:53;100095.50;;;26.31;57.28
76448;BME280;65284;51.040;13.722;2023-06-22T08:27:19;100096.66;;;26.36;57.33
76448;BME280;65284;51.040;13.722;2023-06-22T08:29:47;100094.47;;;26.38;57.13
76448;BME280;65284;51.040;13.722;2023-06-22T08:32:14;100103.44;;;26.33;56.79
76448;BME280;65284;51.040;13.722;2023-06-22T08:34:40;100096.41;;;26.42;56.28
76448;BME280;65284;51.040;13.722;2023-06-22T08:37:10;100092.06;;;26.46;56.65
76448;BME280;65284;51.040;13.722;2023-06-22T08:39:37;100096.75;;;26.51;56.38
76448;BME280;65284;51.040;13.722;2023-06-22T08:42:03;100091.31;;;26.56;55.39
76448;BME280;65284;51.040;13.722;2023-06-22T08:44:30;100087.78;;;26.50;54.50
76448;BME280;65284;51.040;13.722;2023-06-22T08:46:57;100088.63;;;26.61;54.28
76448;BME280;65284;51.040;13.722;2023-06-22T08:49:23;100087.53;;;26.57;54.32
76448;BME280;65284;51.040;13.722;2023-06-22T08:51:50;100085.66;;;26.63;54.55
76448;BME280;65284;51.040;13.722;2023-06-22T08:54:18;100076.13;;;26.65;54.18
76448;BME280;65284;51.040;13.722;2023-06-22T08:56:45;100082.69;;;26.69;53.94
76448;BME280;65284;51.040;13.722;2023-06-22T08:59:11;100086.81;;;26.77;53.31
76448;BME280;65284;51.040;13.722;2023-06-22T09:01:37;100081.63;;;26.81;52.99
76448;BME280;65284;51.040;13.722;2023-06-22T09:04:04;100081.09;;;26.84;52.17
76448;BME280;65284;51.040;13.722;2023-06-22T09:06:32;100075.06;;;26.76;51.83
76448;BME280;65284;51.040;13.722;2023-06-22T09:08:59;100077.53;;;26.78;52.07
76448;BME280;65284;51.040;13.722;2023-06-22T09:11:25;100078.63;;;26.82;52.29
76448;BME280;65284;51.040;13.722;2023-06-22T09:13:52;100078.16;;;26.95;52.16
76448;BME280;65284;51.040;13.722;2023-06-22T09:16:19;100065.06;;;26.97;52.01
76448;BME280;65284;51.040;13.722;2023-06-22T09:18:49;100057.97;;;26.96;52.27
76448;BME280;65284;51.040;13.722;2023-06-22T09:21:15;100068.63;;;27.03;52.28
76448;BME280;65284;51.040;13.722;2023-06-22T09:23:42;100067.00;;;27.07;52.99
76448;BME280;65284;51.040;13.722;2023-06-22T09:26:08;100060.47;;;27.08;52.61
76448;BME280;65284;51.040;13.722;2023-06-22T09:28:35;100058.28;;;27.10;52.38
76448;BME280;65284;51.040;13.722;2023-06-22T09:31:01;100064.84;;;27.14;52.81
76448;BME280;65284;51.040;13.722;2023-06-22T09:33:28;100054.81;;;27.25;52.97
76448;BME280;65284;51.040;13.722;2023-06-22T09:35:54;100060.53;;;27.39;52.50
76448;BME280;65284;51.040;13.722;2023-06-22T09:38:20;100049.91;;;27.37;52.91
76448;BME280;65284;51.040;13.722;2023-06-22T09:40:47;100054.53;;;27.27;51.97
76448;BME280;65284;51.040;13.722;2023-06-22T09:43:13;100048.47;;;27.14;52.18
76448;BME280;65284;51.040;13.722;2023-06-22T09:45:40;100047.44;;;27.36;51.67
76448;BME280;65284;51.040;13.722;2023-06-22T09:48:07;100038.19;;;27.42;51.89
76448;BME280;65284;51.040;13.722;2023-06-22T09:50:36;100039.25;;;27.36;51.38
76448;BME280;65284;51.040;13.722;2023-06-22T09:53:03;100037.38;;;27.52;51.70
76448;BME280;65284;51.040;13.722;2023-06-22T09:55:29;100035.44;;;27.62;51.26
76448;BME280;65284;51.040;13.722;2023-06-22T09:57:56;100032.16;;;27.65;50.30
76448;BME280;65284;51.040;13.722;2023-06-22T10:00:23;100036.56;;;27.51;50.92
76448;BME280;65284;51.040;13.722;2023-06-22T10:02:49;100032.19;;;27.50;50.80
76448;BME280;65284;51.040;13.722;2023-06-22T10:05:17;100025.09;;;27.64;50.97
76448;BME280;65284;51.040;13.722;2023-06-22T10:07:43;100028.63;;;27.80;50.62
76448;BME280;65284;51.040;13.722;2023-06-22T10:10:11;100022.91;;;27.87;50.09
76448;BME280;65284;51.040;13.722;2023-06-22T10:12:43;100016.34;;;27.93;50.31
76448;BME280;65284;51.040;13.722;2023-06-22T10:15:10;100015.00;;;27.96;50.50
76448;BME280;65284;51.040;13.722;2023-06-22T10:17:38;100019.34;;;27.92;50.65
76448;BME280;65284;51.040;13.722;2023-06-22T10:20:06;100012.25;;;27.96;50.50
76448;BME280;65284;51.040;13.722;2023-06-22T10:22:42;100015.78;;;28.06;50.45
76448;BME280;65284;51.040;13.722;2023-06-22T10:25:12;100020.72;;;28.04;50.58
76448;BME280;65284;51.040;13.722;2023-06-22T10:27:39;100016.84;;;28.21;49.76
76448;BME280;65284;51.040;13.722;2023-06-22T10:30:09;100011.34;;;28.41;48.60
76448;BME280;65284;51.040;13.722;2023-06-22T10:32:37;100007.50;;;28.42;48.86
76448;BME280;65284;51.040;13.722;2023-06-22T10:35:05;100003.94;;;28.36;49.12
76448;BME280;65284;51.040;13.722;2023-06-22T10:37:31;99997.66;;;28.46;48.98
76448;BME280;65284;51.040;13.722;2023-06-22T10:39:58;99995.44;;;28.48;49.25
76448;BME280;65284;51.040;13.722;2023-06-22T10:42:25;99988.38;;;28.37;49.64
76448;BME280;65284;51.040;13.722;2023-06-22T10:44:51;99987.03;;;28.29;49.67
76448;BME280;65284;51.040;13.722;2023-06-22T10:47:18;99980.50;;;28.25;49.89
76448;BME280;65284;51.040;13.722;2023-06-22T10:49:44;99976.91;;;28.30;49.74
76448;BME280;65284;51.040;13.722;2023-06-22T10:52:10;99979.38;;;28.31;49.58
76448;BME280;65284;51.040;13.722;2023-06-22T10:54:37;99983.16;;;28.41;49.00
76448;BME280;65284;51.040;13.722;2023-06-22T10:57:04;99985.09;;;28.40;49.74
76448;BME280;65284;51.040;13.722;2023-06-22T10:59:31;99981.81;;;28.43;49.42
76448;BME280;65284;51.040;13.722;2023-06-22T11:01:58;99982.88;;;28.47;49.40
76448;BME280;65284;51.040;13.722;2023-06-22T11:04:25;99982.31;;;28.55;49.55
76448;BME280;65284;51.040;13.722;2023-06-22T11:06:51;99977.69;;;28.41;49.28
76448;BME280;65284;51.040;13.722;2023-06-22T11:09:18;99979.63;;;28.35;49.72
76448;BME280;65284;51.040;13.722;2023-06-22T11:11:53;99975.78;;;28.46;49.78
76448;BME280;65284;51.040;13.722;2023-06-22T11:14:20;99972.63;;;28.78;48.32
76448;BME280;65284;51.040;13.722;2023-06-22T11:16:48;99971.34;;;28.61;48.40
76448;BME280;65284;51.040;13.722;2023-06-22T11:19:14;99961.22;;;28.66;48.67
76448;BME280;65284;51.040;13.722;2023-06-22T11:21:41;99958.16;;;28.73;49.06
76448;BME280;65284;51.040;13.722;2023-06-22T11:24:07;99958.09;;;28.83;48.71
76448;BME280;65284;51.040;13.722;2023-06-22T11:26:34;99961.34;;;28.90;48.67
76448;BME280;65284;51.040;13.722;2023-06-22T11:29:01;99956.59;;;29.06;48.59
76448;BME280;65284;51.040;13.722;2023-06-22T11:31:32;99949.66;;;29.19;47.83
76448;BME280;65284;51.040;13.722;2023-06-22T11:33:59;99946.47;;;29.07;47.62
76448;BME280;65284;51.040;13.722;2023-06-22T11:36:26;99940.84;;;29.27;47.12
76448;BME280;65284;51.040;13.722;2023-06-22T11:38:53;99940.88;;;29.22;47.72
76448;BME280;65284;51.040;13.722;2023-06-22T11:41:19;99945.50;;;29.27;48.05
76448;BME280;65284;51.040;13.722;2023-06-22T11:43:45;99937.56;;;29.25;48.43
76448;BME280;65284;51.040;13.722;2023-06-22T11:46:12;99935.13;;;29.23;48.01
76448;BME280;65284;51.040;13.722;2023-06-22T11:48:38;99939.69;;;29.33;48.28
76448;BME280;65284;51.040;13.722;2023-06-22T11:51:05;99937.50;;;29.35;46.94
76448;BME280;65284;51.040;13.722;2023-06-22T11:53:32;99930.03;;;29.12;47.29
76448;BME280;65284;51.040;13.722;2023-06-22T11:56:00;99921.69;;;29.27;46.98
76448;BME280;65284;51.040;13.722;2023-06-22T11:58:27;99926.13;;;29.23;47.21
76448;BME280;65284;51.040;13.722;2023-06-22T12:00:54;99923.84;;;29.30;47.09
76448;BME280;65284;51.040;13.722;2023-06-22T12:03:21;99912.31;;;29.33;47.63
76448;BME280;65284;51.040;13.722;2023-06-22T12:05:49;99898.59;;;29.38;46.98
76448;BME280;65284;51.040;13.722;2023-06-22T12:08:17;99901.53;;;29.47;46.84
76448;BME280;65284;51.040;13.722;2023-06-22T12:10:43;99888.19;;;29.40;47.03
76448;BME280;65284;51.040;13.722;2023-06-22T12:13:10;99905.63;;;29.50;47.05
76448;BME280;65284;51.040;13.722;2023-06-22T12:15:36;99906.19;;;29.46;46.90
76448;BME280;65284;51.040;13.722;2023-06-22T12:18:02;99900.38;;;29.53;45.85
76448;BME280;65284;51.040;13.722;2023-06-22T12:20:29;99895.25;;;29.46;46.73
76448;BME280;65284;51.040;13.722;2023-06-22T12:22:57;99893.72;;;29.64;45.52
76448;BME280;65284;51.040;13.722;2023-06-22T12:25:24;99888.25;;;29.64;46.03
76448;BME280;65284;51.040;13.722;2023-06-22T12:27:51;99889.88;;;29.60;46.23
76448;BME280;65284;51.040;13.722;2023-06-22T12:30:17;99881.44;;;29.62;46.47
76448;BME280;65284;51.040;13.722;2023-06-22T12:32:44;99889.06;;;29.65;45.95
76448;BME280;65284;51.040;13.722;2023-06-22T12:35:10;99884.13;;;29.67;45.40
76448;BME280;65284;51.040;13.722;2023-06-22T12:37:41;99879.63;;;29.76;45.84
76448;BME280;65284;51.040;13.722;2023-06-22T12:40:09;99871.88;;;29.83;46.15
76448;BME280;65284;51.040;13.722;2023-06-22T12:42:36;99873.38;;;29.95;45.71
76448;BME280;65284;51.040;13.722;2023-06-22T12:45:02;99866.25;;;30.18;44.80
76448;BME280;65284;51.040;13.722;2023-06-22T12:47:29;99859.91;;;30.17;45.32
76448;BME280;65284;51.040;13.722;2023-06-22T12:49:55;99853.22;;;29.85;45.57
76448;BME280;65284;51.040;13.722;2023-06-22T12:52:22;99847.63;;;29.72;45.86